Time;durP1;ratioP1;P1;durP2;ratioP2;P2;SDS_P1;SDS_P2;PMS_P1;PMS_P2;Temp;Humidity;BMP_temperature;BMP_pressure;BME280_temperature;BME280_humidity;BME280_pressure;Samples;Min_cycle;Max_cycle;Signal;HPM_P1;HPM_P2
2022/06/11 00:01:50;;;;;;;17.88;15.35;;;;;;;20.81;100.00;100568.59;5096279;28;20024;-74
2022/06/11 00:04:39;;;;;;;18.63;14.43;;;;;;;20.86;100.00;100568.31;5094737;28;20065;-74
2022/06/11 00:07:25;;;;;;;18.20;15.02;;;;;;;20.73;100.00;100565.53;5094420;28;20059;-74
2022/06/11 00:10:11;;;;;;;18.80;15.13;;;;;;;20.70;100.00;100559.56;5094924;28;20097;-74
2022/06/11 00:12:56;;;;;;;16.05;14.35;;;;;;;20.86;100.00;100563.81;5095646;28;20031;-74
2022/06/11 00:15:43;;;;;;;17.23;14.45;;;;;;;21.40;100.00;100565.72;5094270;28;20024;-73
2022/06/11 00:18:30;;;;;;;16.30;13.95;;;;;;;20.77;100.00;100567.06;5094433;28;20181;-72
2022/06/11 00:21:16;;;;;;;18.83;14.88;;;;;;;20.93;100.00;100565.19;5093985;28;20020;-74
2022/06/11 00:24:02;;;;;;;16.88;14.55;;;;;;;21.24;100.00;100565.00;5095503;28;20040;-74
2022/06/11 00:26:50;;;;;;;20.02;14.82;;;;;;;21.36;100.00;100563.34;5094053;28;20083;-73
2022/06/11 00:29:38;;;;;;;16.70;13.73;;;;;;;21.33;100.00;100568.84;5080169;28;20020;-73
2022/06/11 00:32:24;;;;;;;16.45;14.30;;;;;;;21.30;100.00;100574.41;5093664;28;20368;-73
2022/06/11 00:35:10;;;;;;;17.65;14.13;;;;;;;21.28;100.00;100571.84;5095341;28;20027;-73
2022/06/11 00:37:56;;;;;;;18.05;14.18;;;;;;;21.22;100.00;100560.72;5094258;28;20107;-73
2022/06/11 00:40:45;;;;;;;17.15;14.38;;;;;;;21.35;100.00;100567.84;5095568;28;20023;-73
2022/06/11 00:43:31;;;;;;;17.33;14.55;;;;;;;21.60;100.00;100572.41;5079660;28;20418;-73
2022/06/11 00:46:36;;;;;;;18.00;14.48;;;;;;;21.40;100.00;100572.84;5095236;28;20028;-72
2022/06/11 00:49:51;;;;;;;20.98;14.57;;;;;;;21.44;100.00;100575.22;5094270;28;20016;-74
2022/06/11 00:52:42;;;;;;;17.30;14.82;;;;;;;21.02;100.00;100572.59;5094412;28;20115;-72
2022/06/11 00:55:37;;;;;;;17.63;14.38;;;;;;;21.12;100.00;100567.56;5093001;28;20023;-73
2022/06/11 00:58:28;;;;;;;18.75;14.95;;;;;;;21.18;100.00;100570.69;5093583;28;20073;-72
2022/06/11 01:01:17;;;;;;;21.25;15.82;;;;;;;21.32;100.00;100570.69;5093592;28;20028;-72
2022/06/11 01:04:30;;;;;;;21.83;14.55;;;;;;;21.55;100.00;100578.06;5093934;28;20020;-73
2022/06/11 01:07:34;;;;;;;20.38;14.77;;;;;;;21.52;100.00;100575.59;5094151;28;20382;-74
2022/06/11 01:10:40;;;;;;;16.15;14.00;;;;;;;21.23;100.00;100575.75;5094142;28;20039;-74
2022/06/11 01:13:45;;;;;;;15.02;13.27;;;;;;;21.23;100.00;100579.28;5079201;28;20125;-72
2022/06/11 01:17:12;;;;;;;19.35;14.73;;;;;;;21.12;100.00;100584.41;5094272;28;20055;-75
2022/06/11 01:20:01;;;;;;;19.15;15.88;;;;;;;20.80;100.00;100581.97;5012848;28;20025;-76
2022/06/11 01:23:14;;;;;;;21.98;15.63;;;;;;;20.76;100.00;100594.66;5094805;28;20051;-75
2022/06/11 01:26:20;;;;;;;19.67;16.15;;;;;;;20.88;100.00;100590.38;5093568;28;20075;-76
2022/06/11 01:29:46;;;;;;;20.90;15.93;;;;;;;20.73;100.00;100596.66;5079270;28;20063;-76
2022/06/11 01:32:40;;;;;;;22.00;15.50;;;;;;;20.90;100.00;100597.31;5095167;28;20494;-76
2022/06/11 01:35:42;;;;;;;18.30;15.57;;;;;;;20.80;100.00;100605.94;5085658;28;20032;-77
2022/06/11 01:38:52;;;;;;;19.05;14.48;;;;;;;21.01;100.00;100600.19;5099769;28;20028;-77
2022/06/11 01:41:50;;;;;;;20.00;14.50;;;;;;;21.15;100.00;100602.00;5100885;28;20020;-75
2022/06/11 01:44:40;;;;;;;17.80;15.15;;;;;;;20.82;100.00;100604.06;5100576;28;20027;-76
2022/06/11 01:47:26;;;;;;;16.75;14.27;;;;;;;21.04;100.00;100605.34;5100828;28;20031;-76
2022/06/11 01:50:16;;;;;;;19.70;14.98;;;;;;;20.84;100.00;100615.47;5100679;28;20020;-76
2022/06/11 01:53:34;;;;;;;17.65;14.30;;;;;;;21.11;100.00;100605.81;5100867;28;20032;-76
2022/06/11 01:56:37;;;;;;;21.75;15.52;;;;;;;20.90;100.00;100618.59;5085943;28;20028;-76
2022/06/11 01:59:39;;;;;;;20.05;15.23;;;;;;;21.00;100.00;100618.94;5101039;28;20413;-76
2022/06/11 02:02:50;;;;;;;19.25;15.10;;;;;;;21.03;100.00;100630.28;5085331;28;20031;-76
2022/06/11 02:06:14;;;;;;;18.60;15.90;;;;;;;21.12;100.00;100628.84;5101170;28;20024;-75
2022/06/11 02:09:11;;;;;;;20.70;15.95;;;;;;;21.16;100.00;100625.03;5084989;28;20030;-76
2022/06/11 02:12:15;;;;;;;20.02;16.92;;;;;;;21.06;100.00;100632.72;5101307;28;20360;-76
2022/06/11 02:15:05;;;;;;;23.65;17.48;;;;;;;20.91;100.00;100630.13;5099821;28;20074;-76
2022/06/11 02:17:57;;;;;;;21.88;15.85;;;;;;;21.31;100.00;100629.41;5100557;28;20081;-77
2022/06/11 02:20:49;;;;;;;21.27;15.85;;;;;;;21.18;100.00;100623.97;5100497;28;20085;-76
2022/06/11 02:23:59;;;;;;;18.50;14.80;;;;;;;20.96;100.00;100630.72;5099111;28;20051;-77
2022/06/11 02:26:50;;;;;;;20.45;15.48;;;;;;;21.10;100.00;100642.25;5099860;28;20059;-77
2022/06/11 02:29:38;;;;;;;21.55;14.80;;;;;;;21.17;100.00;100645.38;5099664;28;20028;-76
2022/06/11 02:32:28;;;;;;;19.40;15.32;;;;;;;21.25;100.00;100643.09;5099582;28;20035;-76
2022/06/11 02:35:26;;;;;;;20.33;14.85;;;;;;;21.53;100.00;100638.63;5099378;28;20368;-76
2022/06/11 02:38:17;;;;;;;20.60;15.77;;;;;;;21.59;100.00;100638.25;5099415;28;20085;-77
2022/06/11 02:41:12;;;;;;;19.27;14.35;;;;;;;21.61;100.00;100636.31;5100798;28;20020;-76
2022/06/11 02:43:58;;;;;;;19.75;16.08;;;;;;;20.88;100.00;100647.16;5097036;28;20028;-75
2022/06/11 02:46:44;;;;;;;18.90;16.60;;;;;;;20.86;100.00;100648.22;5096930;28;20413;-75
2022/06/11 02:49:33;;;;;;;23.63;17.05;;;;;;;20.92;100.00;100651.38;5096712;28;20027;-76
2022/06/11 02:52:22;;;;;;;23.77;17.48;;;;;;;20.73;100.00;100655.22;5095905;28;20039;-77
2022/06/11 02:55:09;;;;;;;24.92;18.58;;;;;;;20.57;100.00;100657.94;5081735;28;20036;-75
2022/06/11 02:57:56;;;;;;;22.88;18.52;;;;;;;20.66;100.00;100648.56;5096265;28;20060;-76
2022/06/11 03:00:45;;;;;;;20.52;16.77;;;;;;;20.77;100.00;100654.09;5097402;28;20028;-76
2022/06/11 03:03:31;;;;;;;23.10;17.83;;;;;;;20.51;100.00;100657.44;5095824;28;20024;-76
2022/06/11 03:06:20;;;;;;;20.40;16.63;;;;;;;20.76;100.00;100650.56;5096528;28;20476;-76
2022/06/11 03:09:08;;;;;;;21.95;17.65;;;;;;;20.56;100.00;100655.34;5104258;28;20031;-76
2022/06/11 03:11:55;;;;;;;21.73;15.82;;;;;;;20.89;100.00;100656.03;5098645;28;20016;-76
2022/06/11 03:14:42;;;;;;;21.13;16.50;;;;;;;20.49;100.00;100660.19;5095813;28;20417;-76
2022/06/11 03:17:28;;;;;;;23.90;17.45;;;;;;;20.56;100.00;100661.53;5096347;28;20085;-77
2022/06/11 03:20:16;;;;;;;19.60;16.42;;;;;;;20.38;100.00;100653.78;5095959;28;20094;-76
2022/06/11 03:23:02;;;;;;;21.77;17.77;;;;;;;20.31;100.00;100647.09;5095302;28;20425;-76
2022/06/11 03:25:48;;;;;;;22.33;17.15;;;;;;;20.55;100.00;100645.66;5095316;28;20043;-76
2022/06/11 03:28:34;;;;;;;23.48;17.95;;;;;;;20.29;100.00;100652.50;5096619;28;20061;-76
2022/06/11 03:31:20;;;;;;;22.25;17.45;;;;;;;20.71;100.00;100649.13;5095873;28;20060;-76
2022/06/11 03:34:06;;;;;;;24.63;17.00;;;;;;;20.81;100.00;100647.63;5095366;28;20034;-76
2022/06/11 03:36:52;;;;;;;21.80;16.70;;;;;;;20.71;100.00;100644.66;5095789;28;20032;-77
2022/06/11 03:39:39;;;;;;;24.98;16.40;;;;;;;20.84;100.00;100652.75;5096853;28;20027;-76
2022/06/11 03:42:25;;;;;;;23.05;16.40;;;;;;;20.86;100.00;100648.22;5096557;28;20028;-76
2022/06/11 03:45:11;;;;;;;21.92;17.05;;;;;;;20.70;100.00;100642.94;5094951;28;20020;-76
2022/06/11 03:47:58;;;;;;;21.13;17.05;;;;;;;20.34;100.00;100645.13;5096546;28;20067;-77
2022/06/11 03:50:44;;;;;;;26.60;18.50;;;;;;;20.26;100.00;100650.06;5095244;28;20056;-76
2022/06/11 03:53:30;;;;;;;22.48;17.05;;;;;;;20.36;100.00;100645.03;5095561;28;20035;-76
2022/06/11 03:56:17;;;;;;;20.83;16.75;;;;;;;20.24;100.00;100646.59;5094777;28;20373;-76
2022/06/11 03:59:06;;;;;;;26.17;18.08;;;;;;;20.19;100.00;100650.47;5095297;28;20063;-75
2022/06/11 04:01:53;;;;;;;22.90;17.75;;;;;;;20.49;100.00;100656.69;5094766;28;20028;-76
2022/06/11 04:04:39;;;;;;;20.73;17.42;;;;;;;20.35;100.00;100646.84;5096140;28;20404;-76
2022/06/11 04:07:25;;;;;;;19.80;16.33;;;;;;;20.63;100.00;100659.38;5094531;28;20023;-77
2022/06/11 04:10:11;;;;;;;19.83;16.90;;;;;;;20.56;100.00;100661.53;5095879;28;20356;-78
2022/06/11 04:12:57;;;;;;;22.02;17.00;;;;;;;21.14;100.00;100658.94;5095799;28;20028;-76
2022/06/11 04:15:44;;;;;;;21.55;17.13;;;;;;;21.12;100.00;100652.81;5095733;28;20056;-76
2022/06/11 04:18:44;;;;;;;20.92;17.00;;;;;;;21.17;100.00;100664.03;5094832;28;20387;-75
2022/06/11 04:21:31;;;;;;;21.85;15.93;;;;;;;21.30;100.00;100663.19;5080070;28;20035;-76
2022/06/11 04:24:20;;;;;;;18.45;14.85;;;;;;;21.52;100.00;100668.03;5095214;28;20058;-76
2022/06/11 04:27:08;;;;;;;20.02;14.90;;;;;;;21.67;100.00;100678.63;5094437;28;20024;-77
2022/06/11 04:29:56;;;;;;;25.75;16.55;;;;;;;21.38;100.00;100678.72;5080109;28;20122;-77
2022/06/11 04:32:42;;;;;;;20.40;15.00;;;;;;;21.53;100.00;100683.94;5093922;28;20494;-75
2022/06/11 04:35:27;;;;;;;23.38;17.83;;;;;;;20.82;100.00;100690.13;5095284;28;20020;-75
2022/06/11 04:38:14;;;;;;;23.70;16.60;;;;;;;21.14;100.00;100691.72;5093849;28;20077;-76
2022/06/11 04:41:03;;;;;;;25.15;17.85;;;;;;;21.12;100.00;100691.00;5080052;28;20440;-77
2022/06/11 04:43:50;;;;;;;22.45;17.80;;;;;;;21.38;100.00;100697.38;5094096;28;20072;-77
2022/06/11 04:46:37;;;;;;;20.60;16.13;;;;;;;21.26;100.00;100700.81;5094971;28;20024;-76
2022/06/11 04:49:23;;;;;;;24.13;17.10;;;;;;;21.65;100.00;100704.50;5094439;28;20027;-77
2022/06/11 04:52:09;;;;;;;20.17;16.13;;;;;;;21.58;100.00;100697.84;5080178;28;20127;-76
2022/06/11 04:54:55;;;;;;;21.13;16.08;;;;;;;21.37;100.00;100704.50;5094346;28;20030;-76
2022/06/11 04:57:43;;;;;;;21.65;17.70;;;;;;;21.44;100.00;100705.84;5094485;28;20024;-76
2022/06/11 05:00:31;;;;;;;19.65;16.85;;;;;;;21.27;100.00;100707.84;5094133;28;20123;-75
2022/06/11 05:03:17;;;;;;;22.77;16.90;;;;;;;21.25;100.00;100713.25;5093824;28;20354;-76
2022/06/11 05:06:03;;;;;;;22.33;17.10;;;;;;;21.72;100.00;100703.22;5095094;28;20024;-76
2022/06/11 05:08:49;;;;;;;27.38;18.90;;;;;;;21.60;100.00;100700.41;5094444;28;20081;-76
2022/06/11 05:11:35;;;;;;;24.00;16.33;;;;;;;22.12;100.00;100712.16;5095568;28;20452;-75
2022/06/11 05:14:22;;;;;;;19.80;16.55;;;;;;;21.69;100.00;100706.03;5094722;28;20036;-75
2022/06/11 05:17:08;;;;;;;25.10;17.23;;;;;;;21.99;100.00;100711.25;5093816;28;20396;-76
2022/06/11 05:19:54;;;;;;;19.95;15.75;;;;;;;22.11;100.00;100705.97;5094447;28;20024;-76
2022/06/11 05:22:41;;;;;;;20.13;16.85;;;;;;;21.41;100.00;100710.50;5094762;28;20023;-77
2022/06/11 05:25:27;;;;;;;20.35;16.33;;;;;;;21.39;100.00;100715.97;5080879;28;20076;-77
2022/06/11 05:28:26;;;;;;;22.33;16.60;;;;;;;21.55;100.00;100718.50;5101920;28;20026;-76
2022/06/11 05:31:12;;;;;;;22.38;16.63;;;;;;;21.38;100.00;100721.38;5094035;28;20036;-75
2022/06/11 05:33:57;;;;;;;20.15;17.08;;;;;;;21.49;100.00;100709.09;5093239;28;20471;-76
2022/06/11 05:36:44;;;;;;;22.50;17.00;;;;;;;21.45;100.00;100712.91;5093132;28;20398;-76
2022/06/11 05:39:30;;;;;;;18.60;16.55;;;;;;;21.52;100.00;100713.38;5093408;28;20038;-74
2022/06/11 05:42:18;;;;;;;19.88;16.60;;;;;;;21.54;100.00;100722.97;5094604;28;20017;-77
2022/06/11 05:45:04;;;;;;;19.98;15.60;;;;;;;21.84;100.00;100718.44;5096773;28;20031;-76
2022/06/11 05:47:52;;;;;;;19.60;16.33;;;;;;;21.81;100.00;100717.75;5098004;28;20338;-76
2022/06/11 05:50:41;;;;;;;20.42;16.75;;;;;;;21.86;100.00;100716.50;5097376;28;20028;-76
2022/06/11 05:53:32;;;;;;;19.73;17.23;;;;;;;21.64;100.00;100723.25;5093099;28;20031;-76
2022/06/11 05:56:18;;;;;;;22.33;17.85;;;;;;;21.97;100.00;100724.69;5092939;28;20055;-76
2022/06/11 05:59:12;;;;;;;23.15;17.23;;;;;;;21.63;100.00;100735.75;5093971;28;20111;-76
2022/06/11 06:02:01;;;;;;;19.35;16.42;;;;;;;21.27;100.00;100730.03;5079188;28;20346;-76
2022/06/11 06:04:46;;;;;;;21.48;17.80;;;;;;;21.29;100.00;100729.91;5093318;28;20028;-76
2022/06/11 06:07:32;;;;;;;21.77;18.30;;;;;;;21.41;100.00;100732.69;5093781;28;20019;-75
2022/06/11 06:10:18;;;;;;;23.42;17.88;;;;;;;21.31;100.00;100734.22;5094994;28;20079;-76
2022/06/11 06:13:45;;;;;;;20.20;17.90;;;;;;;21.25;100.00;100731.91;5096605;28;20032;-75
2022/06/11 06:16:10;;;;;;;19.45;17.30;;;;;;;21.32;100.00;100741.25;5094220;28;20024;-76
2022/06/11 06:18:58;;;;;;;22.35;17.50;;;;;;;21.60;100.00;100751.06;5093866;28;20480;-76
2022/06/11 06:21:43;;;;;;;24.13;20.38;;;;;;;21.49;100.00;100746.41;5098108;28;20049;-74
2022/06/11 06:24:29;;;;;;;22.75;19.02;;;;;;;21.48;100.00;100749.16;5097824;28;20139;-74
2022/06/11 06:27:15;;;;;;;21.77;18.75;;;;;;;21.67;100.00;100752.41;5097154;28;20050;-78
2022/06/11 06:30:01;;;;;;;27.00;20.25;;;;;;;21.56;100.00;100753.09;5097459;28;20102;-77
2022/06/11 06:32:46;;;;;;;27.42;19.75;;;;;;;21.49;100.00;100756.22;5097603;28;20039;-77
2022/06/11 06:35:32;;;;;;;22.15;19.73;;;;;;;21.11;100.00;100765.69;5097660;28;20031;-77
2022/06/11 06:38:18;;;;;;;26.33;19.83;;;;;;;21.34;100.00;100767.84;5098752;28;20054;-75
2022/06/11 06:41:05;;;;;;;24.85;19.20;;;;;;;21.40;100.00;100775.44;5096867;28;20019;-75
2022/06/11 06:43:53;;;;;;;29.35;20.92;;;;;;;21.43;100.00;100773.47;5095809;28;20456;-75
2022/06/11 06:46:39;;;;;;;27.00;19.55;;;;;;;21.47;100.00;100769.66;5096160;28;20124;-74
2022/06/11 06:49:25;;;;;;;26.40;19.13;;;;;;;21.30;100.00;100779.63;5096791;28;20441;-75
2022/06/11 06:52:11;;;;;;;21.27;18.38;;;;;;;21.46;100.00;100783.09;5082425;28;20032;-75
2022/06/11 06:54:57;;;;;;;27.80;21.92;;;;;;;21.72;100.00;100795.69;5081813;28;20119;-75
2022/06/11 06:57:42;;;;;;;26.95;18.67;;;;;;;21.80;100.00;100796.94;5096798;28;20031;-75
2022/06/11 07:00:28;;;;;;;26.48;18.30;;;;;;;21.86;100.00;100803.72;5097897;28;20440;-74
2022/06/11 07:03:15;;;;;;;21.50;18.65;;;;;;;21.90;100.00;100805.22;5096089;28;20089;-75
2022/06/11 07:06:03;;;;;;;28.25;18.77;;;;;;;21.24;100.00;100810.16;5097143;28;20020;-73
2022/06/11 07:08:56;;;;;;;20.38;17.85;;;;;;;21.36;100.00;100812.09;5096149;28;20032;-74
2022/06/11 07:15:13;;;;;;;21.55;17.38;;;;;;;21.31;100.00;100814.19;5814827;22;20048;-79
2022/06/11 07:18:05;;;;;;;19.70;17.55;;;;;;;21.45;100.00;100822.19;5097314;28;20372;-77
2022/06/11 07:20:55;;;;;;;18.25;15.90;;;;;;;21.32;100.00;100821.22;5096233;28;20020;-74
2022/06/11 07:23:45;;;;;;;19.92;17.23;;;;;;;21.23;100.00;100831.56;5096885;28;20024;-75
2022/06/11 07:26:38;;;;;;;20.75;17.60;;;;;;;21.43;100.00;100832.13;5081328;28;20456;-75
2022/06/11 07:29:58;;;;;;;22.15;16.63;;;;;;;21.46;100.00;100837.25;5081946;28;20032;-73
2022/06/11 07:32:47;;;;;;;21.90;17.83;;;;;;;21.58;100.00;100844.50;5093074;28;20059;-74
2022/06/11 07:35:37;;;;;;;22.13;17.10;;;;;;;21.68;100.00;100848.34;5096476;28;20043;-75
2022/06/11 07:38:24;;;;;;;23.75;18.55;;;;;;;21.71;100.00;100850.84;5080942;28;20449;-74
2022/06/11 07:41:10;;;;;;;20.45;17.30;;;;;;;21.36;100.00;100851.22;5095850;28;20024;-75
2022/06/11 07:43:55;;;;;;;19.67;16.95;;;;;;;21.47;100.00;100849.66;5081972;28;20066;-75
2022/06/11 07:46:41;;;;;;;18.10;16.20;;;;;;;21.77;100.00;100846.94;5095261;28;20086;-74
2022/06/11 07:49:27;;;;;;;20.30;16.88;;;;;;;21.77;100.00;100850.47;5081621;28;20043;-74
2022/06/11 07:52:13;;;;;;;18.00;15.75;;;;;;;21.61;100.00;100844.31;5095402;28;20032;-74
2022/06/11 07:54:59;;;;;;;18.48;16.17;;;;;;;21.43;100.00;100839.25;5081688;28;20368;-75
2022/06/11 07:57:45;;;;;;;18.70;16.20;;;;;;;21.59;100.00;100845.38;5095873;28;20039;-74
2022/06/11 08:00:35;;;;;;;17.90;16.00;;;;;;;21.53;100.00;100846.59;5082656;28;20020;-74
2022/06/11 08:03:24;;;;;;;18.77;16.45;;;;;;;21.74;100.00;100847.97;5095085;28;20036;-73
2022/06/11 08:06:11;;;;;;;28.60;22.45;;;;;;;21.60;100.00;100847.94;5096693;28;20360;-74
2022/06/11 08:08:57;;;;;;;29.70;22.40;;;;;;;21.59;100.00;100848.91;5096208;28;20081;-73
2022/06/11 08:11:43;;;;;;;19.30;17.02;;;;;;;22.05;100.00;100845.16;5096722;28;20032;-74
2022/06/11 08:14:29;;;;;;;20.30;16.58;;;;;;;22.12;100.00;100838.47;5096222;28;20177;-73
2022/06/11 08:17:14;;;;;;;20.88;18.45;;;;;;;21.56;100.00;100842.88;5095810;28;20119;-73
2022/06/11 08:20:03;;;;;;;21.55;17.25;;;;;;;21.70;100.00;100851.78;5095284;28;20027;-74
2022/06/11 08:22:49;;;;;;;22.02;17.95;;;;;;;21.52;100.00;100836.88;5082716;28;20030;-75
2022/06/11 08:25:36;;;;;;;24.20;18.75;;;;;;;21.27;100.00;100849.09;5094202;28;20024;-74
2022/06/11 08:28:23;;;;;;;25.67;19.38;;;;;;;21.18;100.00;100844.31;5095831;28;20034;-75
2022/06/11 08:31:09;;;;;;;24.50;20.20;;;;;;;21.36;100.00;100840.53;5095077;28;20036;-74
2022/06/11 08:33:54;;;;;;;27.88;20.98;;;;;;;21.32;100.00;100842.56;5094318;28;20030;-75
2022/06/11 08:36:40;;;;;;;30.95;23.58;;;;;;;21.54;100.00;100840.28;5095389;28;20119;-75
2022/06/11 08:39:26;;;;;;;24.85;20.67;;;;;;;21.32;100.00;100839.88;5093924;28;20031;-75
2022/06/11 08:42:36;;;;;;;26.90;20.52;;;;;;;21.73;100.00;100840.06;5095394;28;20058;-74
2022/06/11 08:45:27;;;;;;;27.45;22.42;;;;;;;21.87;100.00;100830.25;5095589;28;20024;-74
2022/06/11 08:48:44;;;;;;;26.00;21.48;;;;;;;21.78;100.00;100840.66;5096373;28;20058;-74
2022/06/11 08:51:41;;;;;;;28.70;21.15;;;;;;;21.59;100.00;100848.03;5095137;28;20031;-74
2022/06/11 08:54:31;;;;;;;28.02;23.30;;;;;;;21.79;100.00;100840.53;5095767;28;20020;-74
2022/06/11 08:57:39;;;;;;;24.80;21.20;;;;;;;21.89;100.00;100849.72;5095414;28;20376;-75
2022/06/11 09:00:35;;;;;;;24.77;20.65;;;;;;;21.74;100.00;100844.47;5094881;28;20043;-75
2022/06/11 09:03:30;;;;;;;51.95;43.08;;;;;;;21.80;100.00;100839.63;5079999;28;20040;-75
2022/06/11 09:06:16;;;;;;;33.08;26.10;;;;;;;21.53;100.00;100835.94;5094170;28;20028;-75
2022/06/11 09:09:26;;;;;;;27.95;22.25;;;;;;;21.12;100.00;100842.88;5080573;28;20441;-78
2022/06/11 09:13:30;;;;;;;26.88;22.20;;;;;;;21.20;100.00;100840.63;5096746;28;20101;-76
2022/06/11 09:16:33;;;;;;;30.50;24.35;;;;;;;21.50;100.00;100840.59;5014051;28;20056;-76
2022/06/11 09:19:40;;;;;;;33.47;26.63;;;;;;;21.33;100.00;100846.06;5049789;28;20105;-76
2022/06/11 09:22:50;;;;;;;29.75;23.60;;;;;;;21.30;100.00;100843.59;5094660;28;20020;-75
2022/06/11 09:25:36;;;;;;;30.55;25.80;;;;;;;21.20;100.00;100847.72;5097100;28;20077;-74
2022/06/11 09:28:34;;;;;;;29.55;23.83;;;;;;;21.15;100.00;100842.69;5093813;28;20024;-75
2022/06/11 09:31:46;;;;;;;32.33;23.35;;;;;;;21.24;100.00;100841.28;5093285;28;20395;-76
2022/06/11 09:34:43;;;;;;;27.48;22.55;;;;;;;21.02;100.00;100835.50;5080594;28;20056;-76
2022/06/11 09:37:39;;;;;;;36.08;26.15;;;;;;;21.01;100.00;100850.63;5094773;28;20020;-75
2022/06/11 09:40:50;;;;;;;34.00;25.92;;;;;;;20.87;100.00;100844.34;5095254;28;20028;-74
2022/06/11 09:43:35;;;;;;;35.47;27.73;;;;;;;21.24;100.00;100849.28;5081485;28;20100;-75
2022/06/11 09:46:47;;;;;;;51.22;40.20;;;;;;;21.02;100.00;100843.50;5093858;28;20111;-77
2022/06/11 09:49:59;;;;;;;36.13;26.42;;;;;;;21.02;100.00;100840.84;5079467;28;20032;-76
2022/06/11 09:53:04;;;;;;;37.22;28.20;;;;;;;21.11;100.00;100843.81;5079648;28;20110;-76
2022/06/11 09:55:59;;;;;;;43.85;29.70;;;;;;;21.30;100.00;100840.94;5096688;28;20425;-75
2022/06/11 09:59:28;;;;;;;38.88;28.23;;;;;;;21.23;100.00;100836.91;5098848;28;20050;-76
2022/06/11 10:02:38;;;;;;;50.50;30.52;;;;;;;20.90;100.00;100844.19;5097509;28;20111;-75
2022/06/11 10:05:56;;;;;;;43.13;29.27;;;;;;;21.35;100.00;100847.72;5097949;28;20097;-74
2022/06/11 10:08:57;;;;;;;40.70;27.75;;;;;;;21.13;100.00;100839.25;5092817;28;20401;-76
2022/06/11 10:11:46;;;;;;;55.83;29.85;;;;;;;20.56;100.00;100837.25;5096517;28;20028;-76
2022/06/11 10:14:40;;;;;;;52.25;28.23;;;;;;;20.49;100.00;100841.19;5098059;28;20036;-76
2022/06/11 10:17:45;;;;;;;44.25;28.20;;;;;;;21.20;100.00;100835.28;5083604;28;20093;-75
2022/06/11 10:20:39;;;;;;;48.20;29.05;;;;;;;21.28;100.00;100834.81;5083561;28;20028;-75
2022/06/11 10:23:37;;;;;;;33.70;26.95;;;;;;;20.91;100.00;100832.56;5083578;28;20035;-77
2022/06/11 10:26:32;;;;;;;33.65;26.27;;;;;;;21.09;100.00;100831.53;5097408;28;20020;-77
2022/06/11 10:29:31;;;;;;;33.33;26.00;;;;;;;21.31;100.00;100840.84;5098658;28;20103;-76
2022/06/11 10:32:25;;;;;;;31.88;25.55;;;;;;;21.53;100.00;100833.25;5096003;28;20050;-76
2022/06/11 10:35:11;;;;;;;33.20;27.35;;;;;;;21.53;100.00;100824.38;5083486;28;20023;-76
2022/06/11 10:38:20;;;;;;;35.80;27.50;;;;;;;21.40;100.00;100826.09;5097046;28;20020;-77
2022/06/11 10:41:12;;;;;;;31.70;24.95;;;;;;;21.25;100.00;100827.88;5097062;28;20020;-77
2022/06/11 10:44:18;;;;;;;36.92;28.88;;;;;;;21.40;100.00;100821.63;5096892;28;20027;-76
2022/06/11 10:47:36;;;;;;;38.92;27.38;;;;;;;21.19;100.00;100816.72;5097636;28;20024;-76
2022/06/11 10:50:30;;;;;;;35.40;26.33;;;;;;;21.30;100.00;100825.78;5095716;28;20028;-76
2022/06/11 10:53:45;;;;;;;31.00;26.33;;;;;;;21.30;100.00;100820.44;5097190;28;20039;-76
2022/06/11 10:56:50;;;;;;;37.17;29.38;;;;;;;21.19;100.00;100814.06;5096760;28;20341;-75
2022/06/11 10:59:38;;;;;;;37.67;28.13;;;;;;;21.18;100.00;100809.69;5096998;28;20341;-76
2022/06/11 11:02:51;;;;;;;40.13;27.60;;;;;;;21.23;100.00;100796.94;5095572;28;20059;-76
2022/06/11 11:05:58;;;;;;;45.15;28.83;;;;;;;21.47;100.00;100801.66;5096890;28;20038;-76
2022/06/11 11:08:53;;;;;;;37.75;25.85;;;;;;;21.49;100.00;100805.06;5081115;28;20031;-76
2022/06/11 11:12:01;;;;;;;32.40;24.20;;;;;;;21.52;100.00;100788.91;5096940;28;20089;-76
2022/06/11 11:14:58;;;;;;;29.15;24.35;;;;;;;21.43;100.00;100783.25;5096377;28;20079;-76
2022/06/11 11:17:58;;;;;;;30.77;24.75;;;;;;;21.56;100.00;100789.56;5098026;28;20360;-75
2022/06/11 11:20:47;;;;;;;30.10;23.58;;;;;;;22.13;100.00;100785.94;5097070;28;20052;-77
2022/06/11 11:23:40;;;;;;;26.95;22.77;;;;;;;22.18;100.00;100784.69;5096096;28;20028;-76
2022/06/11 11:26:39;;;;;;;31.83;24.65;;;;;;;22.27;100.00;100776.09;5096466;28;20107;-76
2022/06/11 11:29:30;;;;;;;27.15;24.17;;;;;;;22.33;100.00;100783.72;5095466;28;20032;-76
2022/06/11 11:32:34;;;;;;;29.00;24.50;;;;;;;22.18;100.00;100773.19;5096183;28;20360;-75
2022/06/11 11:35:22;;;;;;;26.42;22.45;;;;;;;21.54;100.00;100786.97;5095933;28;20495;-76
2022/06/11 11:38:11;;;;;;;29.02;24.60;;;;;;;21.70;100.00;100785.09;5095755;28;20028;-77
2022/06/11 11:41:00;;;;;;;29.50;24.80;;;;;;;21.86;100.00;100783.19;5095791;28;20429;-78
2022/06/11 11:43:46;;;;;;;28.88;25.17;;;;;;;21.84;100.00;100787.78;5095420;28;20028;-76
2022/06/11 11:46:35;;;;;;;27.67;23.50;;;;;;;21.66;100.00;100788.88;5081506;28;20119;-76
2022/06/11 11:49:27;;;;;;;25.83;22.45;;;;;;;21.34;100.00;100797.16;5096913;28;20422;-77
2022/06/11 11:52:20;;;;;;;31.02;23.98;;;;;;;21.31;100.00;100802.66;5096957;28;20078;-75
2022/06/11 11:55:19;;;;;;;30.35;24.73;;;;;;;21.44;100.00;100806.28;5094876;28;20020;-75
2022/06/11 11:58:17;;;;;;;29.42;25.10;;;;;;;21.40;100.00;100808.28;5097524;28;20016;-76
2022/06/11 12:01:08;;;;;;;33.67;26.95;;;;;;;21.36;100.00;100808.56;5096118;28;20035;-77
2022/06/11 12:04:10;;;;;;;28.00;24.17;;;;;;;21.75;100.00;100800.84;5095915;28;20043;-76
2022/06/11 12:07:05;;;;;;;29.20;25.02;;;;;;;21.92;100.00;100792.63;5095771;28;20024;-76
2022/06/11 12:09:56;;;;;;;28.25;25.02;;;;;;;21.47;100.00;100800.78;5094888;28;20020;-77
2022/06/11 12:12:44;;;;;;;32.10;25.10;;;;;;;21.78;100.00;100790.00;5080349;28;20024;-77
2022/06/11 12:15:33;;;;;;;26.00;22.92;;;;;;;21.45;100.00;100782.22;5096351;28;20472;-77
2022/06/11 12:18:25;;;;;;;25.40;22.45;;;;;;;21.85;100.00;100789.50;5065855;28;20093;-76
2022/06/11 12:21:20;;;;;;;25.38;21.90;;;;;;;21.54;100.00;100788.81;5095045;28;20039;-75
2022/06/11 12:24:13;;;;;;;24.67;21.13;;;;;;;21.42;100.00;100793.06;5081020;28;20163;-76
2022/06/11 12:27:05;;;;;;;23.45;20.88;;;;;;;21.48;100.00;100789.16;5079735;28;20093;-76
2022/06/11 12:29:56;;;;;;;25.25;21.80;;;;;;;21.59;100.00;100800.91;5080681;28;20063;-76
2022/06/11 12:32:42;;;;;;;25.83;22.77;;;;;;;21.47;100.00;100798.13;5094632;28;20028;-75
2022/06/11 12:35:47;;;;;;;27.42;23.60;;;;;;;21.65;100.00;100799.63;5081114;28;20024;-76
2022/06/11 12:38:51;;;;;;;25.75;22.75;;;;;;;21.51;100.00;100789.84;5080669;28;20074;-77
2022/06/11 12:41:46;;;;;;;28.98;25.30;;;;;;;21.50;100.00;100790.78;5094575;28;20020;-76
2022/06/11 12:44:41;;;;;;;31.55;26.48;;;;;;;21.66;100.00;100786.22;5080857;28;20487;-75
2022/06/11 12:47:48;;;;;;;34.80;28.38;;;;;;;21.78;100.00;100788.16;5081435;28;20426;-76
2022/06/11 12:50:53;;;;;;;28.55;25.45;;;;;;;21.83;100.00;100785.22;5080655;28;20024;-75
2022/06/11 12:53:58;;;;;;;31.55;27.90;;;;;;;21.63;100.00;100783.75;5096457;28;20028;-77
2022/06/11 12:57:05;;;;;;;32.30;27.27;;;;;;;21.60;100.00;100777.75;5080230;28;20445;-76
2022/06/11 13:00:27;;;;;;;31.67;27.13;;;;;;;21.91;100.00;100775.75;5080802;28;20050;-77
2022/06/11 13:03:16;;;;;;;30.65;26.23;;;;;;;21.34;100.00;100776.66;5020461;28;20043;-76